createdAt,value
2019-05-18T00:02:05.656Z,15.36
2019-05-18T00:04:34.158Z,15.37
2019-05-18T00:07:02.733Z,15.38
2019-05-18T00:09:31.332Z,15.39
2019-05-18T00:11:59.976Z,15.34
2019-05-18T00:14:28.422Z,15.35
2019-05-18T00:16:56.798Z,15.35
2019-05-18T00:19:25.262Z,15.38
2019-05-18T00:21:53.723Z,15.37
2019-05-18T00:24:22.097Z,15.29
2019-05-18T00:26:50.398Z,15.24
2019-05-18T00:29:18.883Z,15.20
2019-05-18T00:31:47.338Z,15.10
2019-05-18T00:34:15.735Z,15.02
2019-05-18T00:36:44.170Z,14.99
2019-05-18T00:39:12.494Z,14.95
2019-05-18T00:41:40.814Z,14.95
2019-05-18T00:44:09.207Z,15.01
2019-05-18T00:46:37.592Z,15.07
2019-05-18T00:49:06.161Z,15.09
2019-05-18T00:51:34.540Z,15.13
2019-05-18T00:54:02.917Z,15.13
2019-05-18T00:56:31.228Z,15.17
2019-05-18T00:58:59.725Z,15.19
2019-05-18T01:01:28.029Z,15.19
2019-05-18T01:03:56.344Z,15.25
2019-05-18T01:06:24.717Z,15.26
2019-05-18T01:08:53.157Z,15.26
2019-05-18T01:11:21.533Z,15.21
2019-05-18T01:13:50.062Z,15.22
2019-05-18T01:16:18.452Z,15.24
2019-05-18T01:18:46.819Z,15.22
2019-05-18T01:21:15.217Z,15.21
2019-05-18T01:23:43.505Z,15.18
2019-05-18T01:26:11.985Z,15.13
2019-05-18T01:28:40.430Z,15.14
2019-05-18T01:31:08.748Z,15.13
2019-05-18T01:33:37.184Z,15.13
2019-05-18T01:36:05.523Z,15.10
2019-05-18T01:38:33.888Z,15.04
2019-05-18T01:41:02.358Z,15.06
2019-05-18T01:43:30.698Z,15.06
2019-05-18T01:45:59.036Z,15.06
2019-05-18T01:48:27.326Z,15.08
2019-05-18T01:50:55.809Z,15.01
2019-05-18T01:53:24.284Z,15.00
2019-05-18T01:55:52.921Z,15.00
2019-05-18T01:58:21.284Z,14.97
2019-05-18T02:00:49.610Z,14.88
2019-05-18T02:03:17.915Z,14.88
2019-05-18T02:05:46.315Z,14.90
2019-05-18T02:08:14.677Z,14.90
2019-05-18T02:10:43.323Z,14.89
2019-05-18T02:13:11.790Z,14.86
2019-05-18T02:15:40.238Z,14.90
2019-05-18T02:18:08.581Z,14.91
2019-05-18T02:20:36.904Z,14.89
2019-05-18T02:23:05.238Z,14.83
2019-05-18T02:25:33.608Z,14.79
2019-05-18T02:28:02.628Z,14.71
2019-05-18T02:30:30.998Z,14.75
2019-05-18T02:32:59.456Z,14.75
2019-05-18T02:35:28.138Z,14.72
2019-05-18T02:37:58.161Z,14.70
2019-05-18T02:40:26.538Z,14.64
2019-05-18T02:42:54.948Z,14.61
2019-05-18T02:45:23.244Z,14.56
2019-05-18T02:47:51.788Z,14.52
2019-05-18T02:50:20.276Z,14.48
2019-05-18T02:52:48.608Z,14.45
2019-05-18T02:55:17.140Z,14.43
2019-05-18T02:57:45.548Z,14.43
2019-05-18T03:00:14.743Z,14.39
2019-05-18T03:02:43.147Z,14.35
2019-05-18T03:05:11.547Z,14.32
2019-05-18T03:07:39.931Z,14.30
2019-05-18T03:10:08.821Z,14.21
2019-05-18T03:12:37.337Z,14.17
2019-05-18T03:15:07.238Z,14.15
2019-05-18T03:17:35.659Z,14.17
2019-05-18T03:20:05.536Z,14.11
2019-05-18T03:22:33.820Z,14.11
2019-05-18T03:25:02.252Z,14.02
2019-05-18T03:27:30.813Z,13.98
2019-05-18T03:29:59.232Z,13.88
2019-05-18T03:32:27.965Z,13.88
2019-05-18T03:34:56.507Z,13.86
2019-05-18T03:37:24.813Z,13.90
2019-05-18T03:39:53.415Z,13.87
2019-05-18T03:42:21.747Z,13.84
2019-05-18T03:44:50.112Z,13.86
2019-05-18T03:47:18.420Z,13.90
2019-05-18T03:49:46.814Z,13.89
2019-05-18T03:52:15.367Z,13.84
2019-05-18T03:54:43.765Z,13.80
2019-05-18T03:57:12.296Z,13.72
2019-05-18T03:59:43.870Z,13.75
2019-05-18T04:02:12.192Z,13.76
2019-05-18T04:04:40.588Z,13.70
2019-05-18T04:07:08.954Z,13.67
2019-05-18T04:09:37.462Z,13.66
2019-05-18T04:12:05.818Z,13.68
2019-05-18T04:14:34.316Z,13.68
2019-05-18T04:17:02.696Z,13.50
2019-05-18T04:19:45.460Z,13.55
2019-05-18T04:22:01.143Z,13.52
2019-05-18T04:24:29.453Z,13.52
2019-05-18T04:26:57.874Z,13.50
2019-05-18T04:29:26.164Z,13.47
2019-05-18T04:31:54.517Z,13.48
2019-05-18T04:34:22.832Z,13.47
2019-05-18T04:36:51.451Z,13.46
2019-05-18T04:39:19.819Z,13.45
2019-05-18T04:41:48.121Z,13.50
2019-05-18T04:44:16.484Z,13.55
2019-05-18T04:46:44.949Z,13.53
2019-05-18T04:49:13.380Z,13.51
2019-05-18T04:51:41.711Z,13.52
2019-05-18T04:54:10.076Z,13.58
2019-05-18T04:56:42.152Z,13.69
2019-05-18T04:59:08.654Z,13.80
2019-05-18T05:01:36.961Z,13.85
2019-05-18T05:04:05.599Z,13.96
2019-05-18T05:06:33.941Z,14.01
2019-05-18T05:09:02.249Z,14.02
2019-05-18T05:11:30.593Z,14.09
2019-05-18T05:13:58.976Z,14.16
2019-05-18T05:16:27.404Z,14.23
2019-05-18T05:18:55.708Z,14.39
2019-05-18T05:21:25.068Z,14.48
2019-05-18T05:23:53.370Z,14.64
2019-05-18T05:26:21.856Z,14.84
2019-05-18T05:28:50.578Z,15.03
2019-05-18T05:31:19.022Z,15.17
2019-05-18T05:33:47.605Z,15.30
2019-05-18T05:36:15.998Z,15.43
2019-05-18T05:38:44.403Z,15.52
2019-05-18T05:41:16.643Z,15.67
2019-05-18T05:43:44.982Z,15.73
2019-05-18T05:46:13.281Z,15.84
2019-05-18T05:48:41.799Z,15.89
2019-05-18T05:51:10.668Z,15.94
2019-05-18T05:53:39.008Z,16.02
2019-05-18T05:56:07.384Z,16.16
2019-05-18T05:58:35.957Z,16.39
2019-05-18T06:01:04.260Z,16.54
2019-05-18T06:03:32.896Z,16.69
2019-05-18T06:06:01.226Z,16.78
2019-05-18T06:08:29.573Z,16.89
2019-05-18T06:10:57.925Z,17.09
2019-05-18T06:13:26.438Z,17.41
2019-05-18T06:15:55.078Z,17.70
2019-05-18T06:18:23.583Z,17.89
2019-05-18T06:20:52.254Z,18.03
2019-05-18T06:23:20.701Z,18.07
2019-05-18T06:25:49.098Z,18.11
2019-05-18T06:28:17.480Z,18.14
2019-05-18T06:30:45.824Z,17.92
2019-05-18T06:33:14.530Z,17.90
2019-05-18T06:35:42.839Z,18.05
2019-05-18T06:38:14.003Z,17.88
2019-05-18T06:40:42.341Z,17.93
2019-05-18T06:43:10.925Z,17.84
2019-05-18T06:45:39.317Z,17.97
2019-05-18T06:48:07.695Z,18.24
2019-05-18T06:50:36.099Z,18.07
2019-05-18T06:53:04.543Z,18.71
2019-05-18T06:55:33.082Z,18.96
2019-05-18T06:58:02.117Z,19.09
2019-05-18T07:00:30.499Z,19.22
2019-05-18T07:02:58.845Z,19.39
2019-05-18T07:05:27.315Z,19.42
2019-05-18T07:07:55.779Z,19.36
2019-05-18T07:10:24.210Z,19.25
2019-05-18T07:12:52.805Z,18.91
2019-05-18T07:15:21.255Z,18.81
2019-05-18T07:17:49.597Z,18.63
2019-05-18T07:20:19.099Z,18.60
2019-05-18T07:22:47.426Z,18.75
2019-05-18T07:25:15.907Z,18.82
2019-05-18T07:27:44.447Z,18.79
2019-05-18T07:30:13.193Z,18.90
2019-05-18T07:32:41.576Z,19.11
2019-05-18T07:35:10.240Z,17.78
2019-05-18T07:37:38.594Z,18.87
2019-05-18T07:40:08.910Z,18.59
2019-05-18T07:42:37.330Z,18.61
2019-05-18T07:45:09.212Z,18.74
2019-05-18T07:47:37.568Z,18.93
2019-05-18T07:50:07.500Z,19.10
2019-05-18T07:52:35.995Z,19.22
2019-05-18T07:55:05.910Z,19.52
2019-05-18T07:57:34.263Z,19.83
2019-05-18T08:00:02.779Z,20.06
2019-05-18T08:02:31.174Z,20.24
2019-05-18T08:04:59.640Z,20.53
2019-05-18T08:07:28.082Z,20.60
2019-05-18T08:09:56.528Z,20.09
2019-05-18T08:12:24.954Z,19.78
2019-05-18T08:14:59.433Z,20.04
2019-05-18T08:17:29.442Z,20.08
2019-05-18T08:19:57.830Z,19.94
2019-05-18T08:22:26.158Z,19.92
2019-05-18T08:24:54.655Z,19.93
2019-05-18T08:27:24.625Z,20.23
2019-05-18T08:29:52.953Z,20.48
2019-05-18T08:32:21.767Z,20.68
2019-05-18T08:34:50.217Z,20.76
2019-05-18T08:37:18.758Z,21.06
2019-05-18T08:39:47.213Z,21.06
2019-05-18T08:42:15.696Z,21.12
2019-05-18T08:44:44.101Z,21.13
2019-05-18T08:47:12.395Z,20.93
2019-05-18T08:49:41.299Z,21.11
2019-05-18T08:52:09.699Z,21.24
2019-05-18T08:54:38.069Z,21.18
2019-05-18T08:57:06.387Z,20.92
2019-05-18T08:59:35.009Z,20.97
2019-05-18T09:02:05.209Z,21.24
2019-05-18T09:04:34.655Z,21.41
2019-05-18T09:07:02.975Z,21.47
2019-05-18T09:09:32.179Z,21.53
2019-05-18T09:12:00.617Z,21.77
2019-05-18T09:14:28.996Z,21.91
2019-05-18T09:16:57.548Z,22.01
2019-05-18T09:19:25.976Z,22.17
2019-05-18T09:21:55.189Z,22.21
2019-05-18T09:24:23.581Z,22.25
2019-05-18T09:26:52.271Z,22.42
2019-05-18T09:29:20.751Z,22.78
2019-05-18T09:31:49.407Z,22.97
2019-05-18T09:34:17.750Z,23.07
2019-05-18T09:36:46.204Z,23.22
2019-05-18T09:39:14.539Z,23.36
2019-05-18T09:41:43.228Z,23.41
2019-05-18T09:44:11.712Z,23.25
2019-05-18T09:46:40.426Z,23.25
2019-05-18T09:49:08.870Z,23.12
2019-05-18T09:51:37.223Z,23.12
2019-05-18T09:54:05.611Z,23.08
2019-05-18T09:56:33.948Z,22.97
2019-05-18T09:59:02.415Z,22.95
2019-05-18T10:01:30.887Z,23.14
2019-05-18T10:03:59.185Z,23.14
2019-05-18T10:06:31.445Z,23.23
2019-05-18T10:08:59.510Z,23.28
2019-05-18T10:11:28.192Z,23.38
2019-05-18T10:13:56.683Z,23.45
2019-05-18T10:16:25.451Z,23.68
2019-05-18T10:18:53.851Z,23.95
2019-05-18T10:21:23.430Z,24.05
2019-05-18T10:23:52.017Z,24.15
2019-05-18T10:26:20.589Z,24.20
2019-05-18T10:28:51.336Z,24.24
2019-05-18T10:31:19.750Z,24.28
2019-05-18T10:33:48.315Z,24.60
2019-05-18T10:36:16.701Z,24.78
2019-05-18T10:38:45.203Z,24.86
2019-05-18T10:41:13.673Z,24.83
2019-05-18T10:43:46.870Z,24.81
2019-05-18T10:46:14.957Z,24.97
2019-05-18T10:48:43.474Z,24.81
2019-05-18T10:51:11.846Z,24.72
2019-05-18T10:53:40.335Z,24.74
2019-05-18T10:56:09.263Z,24.81
2019-05-18T10:58:37.783Z,24.78
2019-05-18T11:01:06.270Z,24.56
2019-05-18T11:03:34.669Z,24.81
2019-05-18T11:06:03.500Z,24.80
2019-05-18T11:08:32.223Z,25.15
2019-05-18T11:11:00.591Z,25.30
2019-05-18T11:13:29.146Z,25.12
2019-05-18T11:15:57.437Z,25.16
2019-05-18T11:18:26.046Z,25.13
2019-05-18T11:20:54.426Z,25.34
2019-05-18T11:23:23.556Z,25.50
2019-05-18T11:25:52.110Z,25.51
2019-05-18T11:28:21.138Z,25.46
2019-05-18T11:30:50.175Z,25.52
2019-05-18T11:33:20.055Z,25.17
2019-05-18T11:35:48.954Z,25.18
2019-05-18T11:38:18.937Z,25.36
2019-05-18T11:40:47.778Z,25.51
2019-05-18T11:43:16.917Z,25.65
2019-05-18T11:45:46.152Z,25.92
2019-05-18T11:48:15.439Z,26.26
2019-05-18T11:50:44.501Z,26.29
2019-05-18T11:53:13.760Z,26.52
2019-05-18T11:55:42.556Z,26.74
2019-05-18T11:58:10.925Z,26.96
2019-05-18T12:00:40.353Z,27.15
2019-05-18T12:03:09.730Z,27.33
2019-05-18T12:05:38.094Z,27.27
2019-05-18T12:08:06.801Z,27.04
2019-05-18T12:10:35.723Z,26.75
2019-05-18T12:13:05.223Z,26.72
2019-05-18T12:15:34.525Z,26.78
2019-05-18T12:18:04.169Z,27.41
2019-05-18T12:20:33.365Z,27.45
2019-05-18T12:23:02.141Z,27.59
2019-05-18T12:25:30.634Z,27.81
2019-05-18T12:27:59.033Z,27.96
2019-05-18T12:30:28.234Z,27.62
2019-05-18T12:32:56.642Z,27.36
2019-05-18T12:35:25.014Z,27.34
2019-05-18T12:37:54.248Z,27.32
2019-05-18T12:40:23.132Z,27.52
2019-05-18T12:42:51.626Z,27.43
2019-05-18T12:45:20.239Z,27.51
2019-05-18T12:47:48.784Z,27.50
2019-05-18T12:50:22.285Z,27.90
2019-05-18T12:52:50.882Z,28.10
2019-05-18T12:55:20.272Z,28.23
2019-05-18T12:57:48.751Z,28.11
2019-05-18T13:00:19.094Z,27.50
2019-05-18T13:02:47.491Z,27.35
2019-05-18T13:05:15.982Z,27.31
2019-05-18T13:07:44.417Z,27.10
2019-05-18T13:10:14.385Z,27.23
2019-05-18T13:12:42.859Z,27.25
2019-05-18T13:15:12.195Z,27.25
2019-05-18T13:17:40.585Z,26.86
2019-05-18T13:20:11.759Z,26.43
2019-05-18T13:22:40.358Z,25.77
2019-05-18T13:25:09.546Z,25.44
2019-05-18T13:27:39.761Z,25.24
2019-05-18T13:30:13.010Z,24.72
2019-05-18T13:32:41.512Z,23.19
2019-05-18T13:35:12.024Z,21.82
2019-05-18T13:37:40.512Z,20.89
2019-05-18T13:40:09.554Z,20.04
2019-05-18T13:42:37.855Z,19.34
2019-05-18T13:45:07.298Z,18.83
2019-05-18T13:47:35.720Z,18.17
2019-05-18T13:50:04.903Z,17.70
2019-05-18T13:52:33.756Z,17.10
2019-05-18T13:55:04.764Z,16.64
2019-05-18T13:57:32.257Z,16.23
2019-05-18T14:00:06.323Z,16.10
2019-05-18T14:02:34.854Z,16.05
2019-05-18T14:05:03.551Z,16.03
2019-05-18T14:07:32.267Z,16.09
2019-05-18T14:10:04.747Z,16.18
2019-05-18T14:12:33.337Z,16.42
2019-05-18T14:15:02.178Z,16.50
2019-05-18T14:17:32.245Z,16.72
2019-05-18T14:20:00.754Z,16.80
2019-05-18T14:22:29.457Z,16.83
2019-05-18T14:24:59.550Z,16.83
2019-05-18T14:27:30.360Z,16.92
2019-05-18T14:29:58.781Z,16.98
2019-05-18T14:32:27.797Z,17.01
2019-05-18T14:34:58.053Z,16.94
2019-05-18T14:37:27.017Z,16.73
2019-05-18T14:39:57.825Z,16.47
2019-05-18T14:42:29.208Z,16.29
2019-05-18T14:44:57.686Z,16.23
2019-05-18T14:47:28.264Z,16.32
2019-05-18T14:49:56.771Z,16.43
2019-05-18T14:52:25.676Z,16.51
2019-05-18T14:54:54.462Z,16.59
2019-05-18T14:57:25.681Z,16.64
2019-05-18T14:59:53.174Z,16.67
2019-05-18T15:02:21.528Z,16.75
2019-05-18T15:04:53.104Z,16.87
2019-05-18T15:07:20.934Z,16.94
2019-05-18T15:09:49.376Z,17.00
2019-05-18T15:12:18.361Z,17.04
2019-05-18T15:14:47.539Z,17.00
2019-05-18T15:17:15.935Z,17.19
2019-05-18T15:19:44.435Z,17.33
2019-05-18T15:22:13.085Z,17.42
2019-05-18T15:24:42.260Z,17.51
2019-05-18T15:27:10.630Z,17.64
2019-05-18T15:29:39.002Z,17.78
2019-05-18T15:32:07.432Z,17.93
2019-05-18T15:34:35.796Z,17.94
2019-05-18T15:37:04.408Z,17.89
2019-05-18T15:39:32.790Z,17.82
2019-05-18T15:42:01.147Z,17.87
2019-05-18T15:44:29.564Z,17.97
2019-05-18T15:46:58.072Z,18.11
2019-05-18T15:49:26.428Z,18.24
2019-05-18T15:51:54.926Z,18.28
2019-05-18T15:54:23.291Z,18.31
2019-05-18T15:56:51.829Z,18.38
2019-05-18T15:59:20.357Z,18.49
2019-05-18T16:01:48.770Z,18.61
2019-05-18T16:04:17.156Z,18.61
2019-05-18T16:06:45.581Z,18.36
2019-05-18T16:09:13.894Z,18.27
2019-05-18T16:11:42.379Z,18.13
2019-05-18T16:14:10.740Z,18.13
2019-05-18T16:16:39.630Z,18.11
2019-05-18T16:19:09.666Z,18.00
2019-05-18T16:21:38.222Z,18.03
2019-05-18T16:24:06.745Z,18.14
2019-05-18T16:26:36.807Z,18.23
2019-05-18T16:29:05.257Z,18.20
2019-05-18T16:31:33.745Z,18.17
2019-05-18T16:34:02.217Z,18.20
2019-05-18T16:36:30.665Z,18.31
2019-05-18T16:38:59.040Z,18.28
2019-05-18T16:41:27.475Z,18.42
2019-05-18T16:43:55.850Z,18.43
2019-05-18T16:46:24.293Z,18.39
2019-05-18T16:48:52.639Z,18.45
2019-05-18T16:51:21.135Z,18.54
2019-05-18T16:53:50.517Z,18.64
2019-05-18T16:56:18.924Z,18.70
2019-05-18T16:58:47.762Z,18.74
2019-05-18T17:01:16.063Z,18.70
2019-05-18T17:03:44.478Z,18.67
2019-05-18T17:06:16.172Z,18.61
2019-05-18T17:08:43.015Z,18.60
2019-05-18T17:11:11.747Z,18.66
2019-05-18T17:13:41.648Z,18.59
2019-05-18T17:16:10.062Z,18.62
2019-05-18T17:18:38.568Z,18.63
2019-05-18T17:21:07.022Z,18.65
2019-05-18T17:23:35.654Z,18.59
2019-05-18T17:26:05.526Z,18.57
2019-05-18T17:28:33.893Z,18.61
2019-05-18T17:31:02.286Z,18.65
2019-05-18T17:33:30.672Z,18.63
2019-05-18T17:36:00.534Z,18.64
2019-05-18T17:38:29.867Z,18.63
2019-05-18T17:40:58.249Z,18.58
2019-05-18T17:43:26.569Z,18.60
2019-05-18T17:45:54.959Z,18.59
2019-05-18T17:48:23.454Z,18.60
2019-05-18T17:50:51.834Z,18.48
2019-05-18T17:53:21.365Z,18.41
2019-05-18T17:55:50.121Z,18.44
2019-05-18T17:58:18.682Z,18.47
2019-05-18T18:00:47.082Z,18.52
2019-05-18T18:03:15.402Z,18.45
2019-05-18T18:05:43.744Z,18.43
2019-05-18T18:09:04.303Z,18.41
2019-05-18T18:11:32.645Z,18.29
2019-05-18T18:14:01.120Z,18.30
2019-05-18T18:16:29.542Z,18.31
2019-05-18T18:18:57.978Z,18.26
2019-05-18T18:21:26.401Z,18.13
2019-05-18T18:23:55.364Z,17.98
2019-05-18T18:26:24.085Z,17.89
2019-05-18T18:28:52.414Z,17.81
2019-05-18T18:31:20.844Z,17.77
2019-05-18T18:33:49.226Z,17.75
2019-05-18T18:36:17.761Z,17.71
2019-05-18T18:38:46.292Z,17.56
2019-05-18T18:41:16.235Z,17.58
2019-05-18T18:43:44.714Z,17.66
2019-05-18T18:46:13.298Z,17.70
2019-05-18T18:48:41.760Z,17.76
2019-05-18T18:51:10.183Z,17.80
2019-05-18T18:53:38.501Z,17.68
2019-05-18T18:56:06.839Z,17.74
2019-05-18T18:58:35.728Z,17.76
2019-05-18T19:01:04.140Z,17.79
2019-05-18T19:03:32.527Z,17.78
2019-05-18T19:06:00.957Z,17.68
2019-05-18T19:08:29.333Z,17.53
2019-05-18T19:10:57.748Z,17.48
2019-05-18T19:13:26.551Z,17.55
2019-05-18T19:15:55.038Z,17.56
2019-05-18T19:18:23.445Z,17.60
2019-05-18T19:20:51.800Z,17.20
2019-05-18T19:23:20.122Z,17.62
2019-05-18T19:25:48.492Z,17.65
2019-05-18T19:28:16.863Z,17.65
2019-05-18T19:30:45.163Z,17.56
2019-05-18T19:33:13.512Z,17.55
2019-05-18T19:35:41.969Z,17.51
2019-05-18T19:38:10.375Z,17.55
2019-05-18T19:40:38.797Z,17.53
2019-05-18T19:43:07.450Z,17.50
2019-05-18T19:45:35.891Z,17.37
2019-05-18T19:48:04.353Z,17.44
2019-05-18T19:50:33.009Z,17.35
2019-05-18T19:53:01.712Z,17.36
2019-05-18T19:55:30.109Z,17.37
2019-05-18T19:58:08.445Z,17.32
2019-05-18T20:00:28.836Z,17.29
2019-05-18T20:02:57.233Z,17.20
2019-05-18T20:05:25.591Z,17.25
2019-05-18T20:07:54.290Z,17.25
2019-05-18T20:10:22.971Z,17.14
2019-05-18T20:12:51.297Z,17.07
2019-05-18T20:15:19.715Z,17.00
2019-05-18T20:17:48.025Z,17.02
2019-05-18T20:20:16.898Z,17.04
2019-05-18T20:22:45.331Z,17.08
2019-05-18T20:25:15.367Z,17.05
2019-05-18T20:27:43.660Z,16.93
2019-05-18T20:30:12.452Z,16.89
2019-05-18T20:32:40.820Z,16.90
2019-05-18T20:35:09.344Z,16.76
2019-05-18T20:37:37.819Z,16.71
2019-05-18T20:40:06.699Z,16.65
2019-05-18T20:42:37.555Z,16.57
2019-05-18T20:45:06.063Z,16.67
2019-05-18T20:47:34.462Z,16.67
2019-05-18T20:50:03.411Z,16.63
2019-05-18T20:52:31.695Z,16.54
2019-05-18T20:55:00.150Z,16.51
2019-05-18T20:57:28.599Z,16.47
2019-05-18T20:59:56.971Z,16.48
2019-05-18T21:02:25.412Z,16.47
2019-05-18T21:04:53.813Z,16.38
2019-05-18T21:07:22.160Z,16.36
2019-05-18T21:09:50.663Z,16.33
2019-05-18T21:12:19.113Z,16.30
2019-05-18T21:14:47.526Z,16.16
2019-05-18T21:17:15.877Z,16.13
2019-05-18T21:19:44.271Z,16.16
2019-05-18T21:22:12.798Z,16.11
2019-05-18T21:24:41.353Z,15.99
2019-05-18T21:27:09.750Z,15.89
2019-05-18T21:29:38.063Z,15.94
2019-05-18T21:32:06.425Z,15.86
2019-05-18T21:34:34.709Z,15.84
2019-05-18T21:37:03.385Z,15.74
2019-05-18T21:39:31.834Z,15.58
2019-05-18T21:42:00.247Z,15.60
2019-05-18T21:44:29.197Z,15.39
2019-05-18T21:46:57.748Z,15.30
2019-05-18T21:49:26.953Z,15.26
2019-05-18T21:51:56.126Z,15.18
2019-05-18T21:54:25.034Z,15.25
2019-05-18T21:56:54.284Z,15.30
2019-05-18T21:59:23.137Z,15.38
2019-05-18T22:03:01.206Z,15.39
2019-05-18T22:06:03.655Z,15.42
2019-05-18T22:09:02.964Z,15.38
2019-05-18T22:12:02.093Z,15.36
2019-05-18T22:33:02.466Z,15.63
2019-05-18T22:36:01.773Z,15.64
2019-05-18T22:39:05.565Z,15.66
2019-05-18T22:42:04.264Z,15.68
2019-05-18T22:45:03.932Z,15.68
2019-05-18T22:48:03.094Z,15.73
2019-05-18T23:05:01.321Z,15.64
2019-05-18T23:08:03.400Z,15.60
2019-05-18T23:11:02.675Z,15.55
2019-05-18T23:14:01.940Z,15.58
2019-05-18T23:17:04.292Z,15.63
2019-05-18T23:20:03.689Z,15.74
2019-05-18T23:23:03.091Z,15.79
2019-05-18T23:26:02.347Z,15.72
2019-05-18T23:29:04.615Z,15.67
2019-05-18T23:32:03.592Z,15.62
2019-05-18T23:35:02.694Z,15.70
2019-05-18T23:38:01.845Z,15.72
2019-05-18T23:41:04.040Z,15.69
2019-05-18T23:44:03.658Z,15.70
2019-05-18T23:47:02.543Z,15.79
2019-05-18T23:50:05.687Z,15.72
2019-05-18T23:53:04.737Z,15.73
2019-05-18T23:56:04.134Z,15.72
2019-05-18T23:58:32.903Z,15.70
